Time;durP1;ratioP1;P1;durP2;ratioP2;P2;SDS_P1;SDS_P2;PMS_P1;PMS_P2;Temp;Humidity;BMP_temperature;BMP_pressure;BME280_temperature;BME280_humidity;BME280_pressure;Samples;Min_cycle;Max_cycle;Signal;HPM_P1;HPM_P2
2020/12/22 00:00:06;;;;;;;81.87;43.63;;;;;;;4.95;84.78;101354.59;1747353;80;28373;-81
2020/12/22 00:02:47;;;;;;;82.95;43.65;;;;;;;4.96;84.71;101361.56;1736608;82;25919;-80
2020/12/22 00:05:15;;;;;;;84.30;44.38;;;;;;;4.95;84.69;101364.37;1668453;82;25934;-81
2020/12/22 00:07:43;;;;;;;79.35;40.60;;;;;;;4.93;84.66;101365.83;1689489;82;26456;-81
2020/12/22 00:10:12;;;;;;;78.87;41.08;;;;;;;4.89;84.66;101351.15;1712555;82;25947;-81
2020/12/22 00:12:39;;;;;;;76.05;41.02;;;;;;;4.89;84.66;101354.28;1736502;82;27520;-81
2020/12/22 00:15:09;;;;;;;81.97;42.38;;;;;;;4.88;84.63;101339.31;1666520;82;25871;-81
2020/12/22 00:17:46;;;;;;;89.35;43.92;;;;;;;4.91;84.58;101341.23;1857776;76;25706;-81
2020/12/22 00:20:15;;;;;;;85.55;43.75;;;;;;;4.84;84.61;101341.40;1764123;78;25841;-80
2020/12/22 00:22:45;;;;;;;77.10;42.70;;;;;;;4.84;84.65;101344.53;1819503;78;28408;-81
2020/12/22 00:25:12;;;;;;;90.20;45.90;;;;;;;4.82;84.60;101335.86;1819079;78;26101;-81
2020/12/22 00:27:39;;;;;;;87.08;45.78;;;;;;;4.82;84.54;101333.20;1764215;78;25898;-81
2020/12/22 00:30:07;;;;;;;92.02;46.60;;;;;;;4.78;84.40;101326.01;1763986;78;25839;-81
2020/12/22 00:32:35;;;;;;;83.37;44.08;;;;;;;4.78;84.52;101333.97;1789253;78;26849;-81
2020/12/22 00:35:04;;;;;;;83.47;44.55;;;;;;;4.78;84.49;101326.48;1819445;78;27519;-81
2020/12/22 00:37:32;;;;;;;77.53;43.60;;;;;;;4.78;84.51;101329.98;1727797;80;25690;-81
2020/12/22 00:39:59;;;;;;;85.50;44.05;;;;;;;4.74;84.47;101325.92;1727284;80;25801;-81
2020/12/22 00:42:32;;;;;;;79.37;42.55;;;;;;;4.70;84.46;101321.85;1724840;81;26542;-81
2020/12/22 00:45:00;;;;;;;86.17;44.55;;;;;;;4.67;84.52;101322.10;1761481;80;25984;-81
2020/12/22 00:47:27;;;;;;;78.10;42.17;;;;;;;4.65;84.62;101326.22;1707336;81;27590;-81
2020/12/22 00:49:56;;;;;;;77.15;42.65;;;;;;;4.67;84.60;101326.08;1707436;81;25847;-81
2020/12/22 00:52:23;;;;;;;79.75;43.15;;;;;;;4.65;84.55;101318.74;1731420;81;25557;-82
2020/12/22 00:54:50;;;;;;;86.78;45.75;;;;;;;4.64;84.52;101315.23;1761577;81;25769;-81
2020/12/22 00:57:18;;;;;;;83.75;43.00;;;;;;;4.62;84.49;101311.03;1683904;81;26050;-81
2020/12/22 01:00:12;;;;;;;86.43;50.73;;;;;;;4.65;84.41;101306.80;1803051;78;28538;-81
2020/12/22 01:02:40;;;;;;;86.53;44.88;;;;;;;4.81;84.08;101301.87;1781259;80;25721;-81
2020/12/22 01:05:08;;;;;;;80.60;43.60;;;;;;;4.77;84.07;101298.28;1755160;80;28248;-81
2020/12/22 01:07:35;;;;;;;91.10;47.85;;;;;;;4.72;84.09;101301.33;1786074;80;26112;-81
2020/12/22 01:10:03;;;;;;;85.10;45.63;;;;;;;4.70;84.14;101300.11;1730370;80;25894;-81
2020/12/22 01:12:31;;;;;;;90.77;46.40;;;;;;;4.66;84.18;101298.70;1726085;80;25714;-81
2020/12/22 01:14:58;;;;;;;86.02;46.00;;;;;;;4.64;84.20;101296.66;1730659;80;25830;-81
2020/12/22 01:17:25;;;;;;;88.78;47.08;;;;;;;4.62;84.29;101295.11;1786095;80;27514;-81
2020/12/22 01:19:53;;;;;;;89.77;46.05;;;;;;;4.58;84.23;101283.93;1755359;79;26148;-81
2020/12/22 01:22:20;;;;;;;89.65;48.05;;;;;;;4.56;84.34;101290.34;1726202;80;25794;-81
2020/12/22 01:24:48;;;;;;;93.87;48.90;;;;;;;4.55;84.37;101284.69;1730415;80;25754;-80
2020/12/22 01:27:15;;;;;;;93.42;48.35;;;;;;;4.54;84.36;101274.55;1786203;80;25328;-81
2020/12/22 01:29:43;;;;;;;96.75;49.35;;;;;;;4.55;84.44;101273.60;1731320;80;28468;-81
2020/12/22 01:32:11;;;;;;;91.15;49.30;;;;;;;4.52;84.25;101271.20;1725825;80;25880;-81
2020/12/22 01:34:38;;;;;;;102.47;50.08;;;;;;;4.51;84.39;101268.69;1755125;80;25423;-80
2020/12/22 01:37:13;;;;;;;94.28;49.10;;;;;;;4.50;84.38;101271.81;1785778;79;25850;-80
2020/12/22 01:39:40;;;;;;;96.02;47.35;;;;;;;4.52;84.40;101271.67;1755360;80;25792;-81
2020/12/22 01:42:11;;;;;;;103.90;53.00;;;;;;;4.51;84.50;101264.20;1726075;80;27512;-81
2020/12/22 01:44:38;;;;;;;105.00;50.98;;;;;;;4.51;84.40;101256.23;1755329;80;32600;-81
2020/12/22 01:47:06;;;;;;;91.92;48.52;;;;;;;4.51;84.36;101258.89;1785891;80;25733;-81
2020/12/22 01:49:33;;;;;;;95.67;48.15;;;;;;;4.48;84.34;101255.67;1725741;80;26060;-82
2020/12/22 01:52:02;;;;;;;92.65;49.67;;;;;;;4.47;84.38;101248.70;1755527;80;25771;-81
2020/12/22 01:54:30;;;;;;;93.97;50.35;;;;;;;4.46;84.35;101248.33;1755524;80;28409;-83
2020/12/22 01:56:59;;;;;;;96.32;49.50;;;;;;;4.47;84.55;101244.72;1785902;80;25792;-81
2020/12/22 01:59:26;;;;;;;97.05;49.55;;;;;;;4.47;84.38;101234.11;1742204;78;26357;-82
2020/12/22 02:01:54;;;;;;;93.07;45.70;;;;;;;4.43;84.26;101236.65;1766775;78;26505;-82
2020/12/22 02:04:21;;;;;;;89.13;46.53;;;;;;;4.40;84.33;101227.17;1794257;78;25380;-81
2020/12/22 02:06:49;;;;;;;95.60;48.45;;;;;;;4.36;84.29;101219.60;1783231;80;27517;-81
2020/12/22 02:09:16;;;;;;;94.17;47.33;;;;;;;4.36;84.51;101219.09;1701424;81;26448;-81
2020/12/22 02:11:44;;;;;;;91.42;46.42;;;;;;;4.34;84.47;101215.73;1725928;81;26614;-80
2020/12/22 02:14:11;;;;;;;91.72;46.13;;;;;;;4.34;84.51;101219.71;1726002;81;25411;-80
2020/12/22 02:16:41;;;;;;;94.58;46.88;;;;;;;4.35;84.50;101216.58;1751258;81;25764;-81
2020/12/22 02:19:09;;;;;;;90.40;44.88;;;;;;;4.31;84.50;101217.34;1701209;81;28500;-81
2020/12/22 02:21:36;;;;;;;89.83;46.23;;;;;;;4.31;84.58;101214.69;1781808;80;25719;-81
2020/12/22 02:24:04;;;;;;;90.85;46.53;;;;;;;4.30;84.50;101205.55;1724250;81;25765;-81
2020/12/22 02:26:31;;;;;;;78.50;43.90;;;;;;;4.30;84.58;101205.03;1726142;81;26129;-81
2020/12/22 02:28:58;;;;;;;90.50;44.50;;;;;;;4.30;84.57;101195.76;1743665;81;25944;-81
2020/12/22 02:31:26;;;;;;;82.80;43.85;;;;;;;4.34;84.68;101195.84;1751652;81;27584;-81
2020/12/22 02:33:54;;;;;;;79.22;42.67;;;;;;;4.35;84.62;101182.95;1744882;82;26035;-81
2020/12/22 02:36:21;;;;;;;82.10;42.38;;;;;;;4.34;84.55;101179.93;1745196;82;25820;-81
2020/12/22 02:38:49;;;;;;;87.82;42.67;;;;;;;4.36;84.59;101174.52;1703076;81;26389;-81
2020/12/22 02:41:16;;;;;;;92.53;45.88;;;;;;;4.37;84.59;101173.05;1780122;80;26070;-81
2020/12/22 02:43:43;;;;;;;95.65;46.37;;;;;;;4.38;84.57;101168.59;1756125;80;27718;-81
2020/12/22 02:46:11;;;;;;;78.20;44.45;;;;;;;4.38;84.51;101165.46;1729836;80;26162;-81
2020/12/22 02:48:39;;;;;;;86.05;43.80;;;;;;;4.36;84.42;101160.74;1756119;80;25926;-82
2020/12/22 02:51:06;;;;;;;82.05;40.25;;;;;;;4.36;84.50;101167.38;1755837;80;25860;-81
2020/12/22 02:53:33;;;;;;;75.97;40.75;;;;;;;4.34;84.48;101160.04;1706431;80;25884;-81
2020/12/22 02:56:01;;;;;;;74.70;40.20;;;;;;;4.34;84.45;101155.25;1729946;80;27545;-81
2020/12/22 02:58:28;;;;;;;76.85;41.55;;;;;;;4.35;84.51;101150.28;1756594;80;25898;-81
2020/12/22 03:00:56;;;;;;;72.42;37.17;;;;;;;4.37;84.52;101143.03;1761273;80;26393;-80
2020/12/22 03:03:23;;;;;;;67.20;34.55;;;;;;;4.42;84.51;101140.83;1736687;80;25705;-81
2020/12/22 03:05:51;;;;;;;66.53;35.80;;;;;;;4.44;84.36;101134.89;1735415;80;25784;-81
2020/12/22 03:08:18;;;;;;;60.55;34.10;;;;;;;4.45;84.38;101136.08;1761386;80;28309;-81
2020/12/22 03:10:45;;;;;;;64.50;34.10;;;;;;;4.45;84.23;101129.45;1788062;80;25309;-81
2020/12/22 03:13:13;;;;;;;63.15;35.20;;;;;;;4.46;84.13;101123.19;1734885;80;26016;-81
2020/12/22 03:15:40;;;;;;;61.50;33.28;;;;;;;4.47;84.12;101114.23;1735170;80;25793;-81
2020/12/22 03:18:07;;;;;;;66.05;33.28;;;;;;;4.49;84.07;101110.95;1761417;80;25829;-81
2020/12/22 03:20:35;;;;;;;51.90;29.72;;;;;;;4.50;84.03;101105.17;1788251;80;27606;-81
2020/12/22 03:23:02;;;;;;;56.60;30.17;;;;;;;4.48;83.85;101108.45;1736622;80;26366;-81
2020/12/22 03:25:30;;;;;;;53.95;28.87;;;;;;;4.46;83.82;101112.58;1735392;80;25880;-81
2020/12/22 03:27:57;;;;;;;56.02;28.80;;;;;;;4.47;83.82;101105.46;1761456;80;25779;-81
2020/12/22 03:30:24;;;;;;;54.40;28.60;;;;;;;4.48;83.76;101097.84;1761355;80;25903;-81
2020/12/22 03:32:52;;;;;;;61.68;34.65;;;;;;;4.49;83.78;101095.55;1736438;80;27533;-81
2020/12/22 03:35:19;;;;;;;57.50;31.90;;;;;;;4.50;83.71;101090.58;1761598;80;25854;-81
2020/12/22 03:37:47;;;;;;;49.60;28.87;;;;;;;4.52;83.72;101087.30;1760973;80;26505;-81
2020/12/22 03:40:14;;;;;;;49.70;27.42;;;;;;;4.52;83.63;101085.50;1788077;80;26415;-81
2020/12/22 03:42:41;;;;;;;45.30;27.05;;;;;;;4.55;83.67;101089.22;1735349;80;26079;-81
2020/12/22 03:45:10;;;;;;;49.95;27.30;;;;;;;4.57;83.43;101088.59;1735373;80;27553;-81
2020/12/22 03:47:37;;;;;;;51.65;27.62;;;;;;;4.55;83.37;101078.61;1761140;80;25519;-80
2020/12/22 03:50:05;;;;;;;48.95;27.82;;;;;;;4.55;83.16;101073.30;1787808;80;25827;-81
2020/12/22 03:52:32;;;;;;;48.78;27.82;;;;;;;4.54;83.22;101074.74;1735613;80;25789;-80
2020/12/22 03:54:59;;;;;;;46.70;27.10;;;;;;;4.52;83.14;101066.93;1735293;80;26375;-81
2020/12/22 03:57:27;;;;;;;50.40;27.48;;;;;;;4.53;83.08;101062.47;1761436;80;27030;-81
2020/12/22 03:59:54;;;;;;;54.83;28.23;;;;;;;4.52;83.02;101060.30;1770595;80;25825;-81
2020/12/22 04:02:22;;;;;;;50.10;27.60;;;;;;;4.52;82.86;101058.13;1711818;82;25779;-81
2020/12/22 04:04:49;;;;;;;54.05;28.45;;;;;;;4.50;82.91;101054.30;1711894;82;26164;-81
2020/12/22 04:07:16;;;;;;;46.75;25.25;;;;;;;4.49;82.89;101053.92;1711917;82;25875;-81
2020/12/22 04:09:44;;;;;;;49.48;28.05;;;;;;;4.51;82.82;101048.51;1728614;82;27537;-81
2020/12/22 04:12:11;;;;;;;53.25;28.27;;;;;;;4.49;82.81;101044.64;1688014;82;25829;-80
2020/12/22 04:14:38;;;;;;;51.53;28.87;;;;;;;4.49;82.90;101034.55;1711923;82;25875;-81
2020/12/22 04:17:06;;;;;;;49.77;27.42;;;;;;;4.51;82.84;101042.69;1711643;82;25884;-81
2020/12/22 04:19:33;;;;;;;55.67;28.87;;;;;;;4.52;82.90;101028.95;1686608;82;25907;-81
2020/12/22 04:22:00;;;;;;;56.68;30.35;;;;;;;4.54;82.82;101030.97;1711622;82;27525;-81
2020/12/22 04:24:28;;;;;;;56.75;29.65;;;;;;;4.54;82.63;101036.28;1687889;82;26561;-81
2020/12/22 04:26:55;;;;;;;56.50;30.15;;;;;;;4.51;82.65;101038.70;1711526;82;25814;-81
2020/12/22 04:29:23;;;;;;;52.30;29.90;;;;;;;4.49;82.56;101030.05;1728444;82;25702;-81
2020/12/22 04:31:51;;;;;;;57.35;29.77;;;;;;;4.49;82.62;101023.42;1711804;82;26163;-81
2020/12/22 04:34:18;;;;;;;55.20;32.85;;;;;;;4.53;82.49;101022.68;1711746;82;28354;-81
2020/12/22 04:36:46;;;;;;;57.70;31.60;;;;;;;4.49;82.43;101023.42;1728451;81;25801;-81
2020/12/22 04:39:13;;;;;;;57.30;31.40;;;;;;;4.48;82.40;101016.94;1711795;82;25728;-81
2020/12/22 04:41:45;;;;;;;54.42;31.20;;;;;;;4.47;82.44;101014.77;1711767;82;25782;-81
2020/12/22 04:44:14;;;;;;;63.35;32.70;;;;;;;4.45;82.38;101016.72;1711894;82;25691;-81
2020/12/22 04:46:43;;;;;;;55.65;30.50;;;;;;;4.44;82.39;101016.39;1728638;82;27545;-81
2020/12/22 04:49:13;;;;;;;60.73;32.28;;;;;;;4.43;82.32;101011.19;1736261;82;25763;-81
2020/12/22 04:51:43;;;;;;;58.35;32.08;;;;;;;4.44;82.42;101012.41;1711857;82;25747;-81
2020/12/22 04:54:10;;;;;;;61.20;32.90;;;;;;;4.42;82.25;101016.16;1712155;82;25944;-81
2020/12/22 04:56:38;;;;;;;62.25;32.83;;;;;;;4.40;82.32;101020.29;1728463;82;25844;-81
2020/12/22 04:59:06;;;;;;;64.47;33.55;;;;;;;4.40;82.33;101016.31;1712042;82;27609;-81
2020/12/22 05:01:33;;;;;;;59.58;33.78;;;;;;;4.39;82.17;101010.64;1750389;81;25724;-82
2020/12/22 05:04:00;;;;;;;64.45;35.45;;;;;;;4.37;82.18;100999.33;1727692;81;25862;-80
2020/12/22 05:06:28;;;;;;;66.53;34.23;;;;;;;4.39;82.17;100996.53;1733693;81;25886;-81
2020/12/22 05:08:55;;;;;;;68.30;36.90;;;;;;;4.38;82.19;100992.23;1719850;81;26203;-82
2020/12/22 05:11:24;;;;;;;68.85;37.48;;;;;;;4.37;82.15;100990.05;1710525;81;27482;-81
2020/12/22 05:13:52;;;;;;;64.35;36.00;;;;;;;4.35;81.95;100991.16;1701830;81;25855;-81
2020/12/22 05:16:27;;;;;;;60.83;34.55;;;;;;;4.33;82.04;100998.42;1764485;81;25864;-81
2020/12/22 05:18:56;;;;;;;68.07;36.98;;;;;;;4.31;81.97;100990.61;1701897;81;25882;-81
2020/12/22 05:21:24;;;;;;;70.78;39.38;;;;;;;4.30;82.09;100987.59;1756003;80;26274;-81
2020/12/22 05:23:51;;;;;;;65.17;35.80;;;;;;;4.31;82.04;100984.45;1725827;81;27298;-81
2020/12/22 05:29:13;;;;;;;65.60;37.53;;;;;;;4.36;82.00;100962.35;1838752;77;25838;-81
2020/12/22 05:31:48;;;;;;;74.35;39.65;;;;;;;4.31;82.01;100957.94;1818184;78;25806;-80
2020/12/22 05:34:19;;;;;;;71.57;39.50;;;;;;;4.32;81.90;100951.16;1750866;78;28567;-81
2020/12/22 05:36:48;;;;;;;70.42;39.53;;;;;;;4.30;81.89;100950.98;1775229;80;25724;-81
2020/12/22 05:39:18;;;;;;;68.60;37.75;;;;;;;4.29;81.97;100947.48;1755258;80;25797;-81
2020/12/22 05:41:46;;;;;;;72.12;39.27;;;;;;;4.28;81.73;100946.27;1786214;80;25734;-81
2020/12/22 05:44:13;;;;;;;74.20;39.00;;;;;;;4.26;81.77;100957.02;1702721;80;25907;-82
2020/12/22 05:46:42;;;;;;;76.25;37.85;;;;;;;4.23;81.81;100950.69;1730539;78;27543;-81
2020/12/22 05:49:11;;;;;;;75.28;38.05;;;;;;;4.22;81.67;100938.87;1753294;80;25839;-82
2020/12/22 05:51:38;;;;;;;78.02;39.78;;;;;;;4.20;81.69;100935.05;1783842;78;25725;-81
2020/12/22 05:54:08;;;;;;;74.32;39.95;;;;;;;4.18;81.65;100925.06;1701732;80;25754;-81
2020/12/22 05:56:36;;;;;;;71.87;38.05;;;;;;;4.16;81.62;100923.04;1692656;82;25798;-80
2020/12/22 05:59:03;;;;;;;72.75;38.25;;;;;;;4.15;81.75;100911.27;1727214;80;27321;-81
2020/12/22 06:01:34;;;;;;;71.50;37.42;;;;;;;4.16;81.61;100908.46;1696407;83;25782;-80
2020/12/22 06:04:09;;;;;;;66.82;33.58;;;;;;;4.18;81.41;100893.25;1828223;77;25768;-80
2020/12/22 06:06:37;;;;;;;69.77;37.08;;;;;;;4.10;81.29;100882.51;1789367;78;26427;-81
2020/12/22 06:09:04;;;;;;;70.95;37.48;;;;;;;4.05;81.28;100875.92;1703363;81;28557;-81
2020/12/22 06:11:36;;;;;;;64.72;35.48;;;;;;;4.02;81.28;100874.39;1699205;82;25814;-80
2020/12/22 06:14:05;;;;;;;61.33;32.95;;;;;;;3.99;81.23;100872.03;1699857;83;25852;-81
2020/12/22 06:16:33;;;;;;;66.42;34.78;;;;;;;3.94;81.24;100867.62;1724233;83;25384;-81
2020/12/22 06:19:02;;;;;;;68.07;36.63;;;;;;;3.91;81.33;100874.03;1689424;82;25864;-80
2020/12/22 06:21:29;;;;;;;64.55;34.95;;;;;;;3.89;81.41;100873.84;1717151;80;28619;-81
2020/12/22 06:23:57;;;;;;;65.25;35.48;;;;;;;3.88;81.30;100873.00;1754621;80;25843;-80
2020/12/22 06:26:26;;;;;;;64.22;35.55;;;;;;;3.87;81.55;100866.01;1755481;81;26519;-81
2020/12/22 06:28:53;;;;;;;62.03;33.48;;;;;;;3.89;81.40;100864.05;1715487;81;25932;-81
2020/12/22 06:31:25;;;;;;;65.15;33.67;;;;;;;3.89;81.46;100865.89;1729870;81;25780;-81
2020/12/22 06:33:53;;;;;;;62.85;34.13;;;;;;;3.87;81.41;100866.01;1705621;81;28054;-81
2020/12/22 06:36:21;;;;;;;62.00;35.38;;;;;;;3.86;81.46;100863.50;1739622;81;25863;-81
2020/12/22 06:38:57;;;;;;;60.12;33.00;;;;;;;3.88;81.54;100868.17;1690626;82;25874;-81
2020/12/22 06:41:29;;;;;;;64.42;34.03;;;;;;;3.89;81.54;100868.03;1715000;81;26198;-81
2020/12/22 06:43:57;;;;;;;63.48;32.17;;;;;;;3.88;81.44;100869.50;1720517;81;25442;-80
2020/12/22 06:46:37;;;;;;;59.35;32.33;;;;;;;3.88;81.51;100873.00;1746634;81;28473;-81
2020/12/22 06:49:05;;;;;;;62.35;34.60;;;;;;;3.91;81.51;100867.91;1706656;81;25774;-81
2020/12/22 06:51:36;;;;;;;64.50;32.30;;;;;;;3.90;81.34;100869.72;1732184;81;26046;-82
2020/12/22 06:54:06;;;;;;;;;;;;;;;3.89;81.31;100865.38;1711582;81;26190;-81
2020/12/22 06:56:54;;;;;;;56.33;30.37;;;;;;;3.89;81.39;100859.27;1722848;81;25925;-81
2020/12/22 06:59:47;;;;;;;58.65;30.88;;;;;;;3.89;81.41;100849.99;1750878;81;28589;-81
2020/12/22 07:02:34;;;;;;;53.55;30.90;;;;;;;3.89;81.46;100842.85;1744893;81;25778;-80
2020/12/22 07:05:07;;;;;;;59.80;32.33;;;;;;;3.91;81.58;100839.58;1726154;81;25816;-80
2020/12/22 07:07:57;;;;;;;56.00;29.50;;;;;;;4.02;82.26;100839.12;1727225;82;25370;-81
2020/12/22 07:10:27;;;;;;;57.62;31.77;;;;;;;4.12;81.66;100831.52;1720304;81;25765;-81
2020/12/22 07:12:59;;;;;;;51.97;30.67;;;;;;;4.11;81.11;100818.38;1733017;81;27601;-80
2020/12/22 07:15:33;;;;;;;54.88;30.08;;;;;;;4.10;81.04;100810.94;1690102;81;25877;-81
2020/12/22 07:18:13;;;;;;;56.55;32.15;;;;;;;4.12;80.75;100810.79;1816318;77;25682;-81
2020/12/22 07:20:43;;;;;;;52.27;29.40;;;;;;;4.03;80.62;100801.02;1808292;78;28459;-80
2020/12/22 07:23:12;;;;;;;65.15;33.92;;;;;;;3.99;80.72;100795.17;1791180;79;28517;-81
2020/12/22 07:25:42;;;;;;;58.13;30.05;;;;;;;3.97;80.54;100789.17;1762941;80;25837;-81
2020/12/22 07:28:11;;;;;;;61.85;31.07;;;;;;;3.94;80.62;100781.49;1704976;82;25952;-80
2020/12/22 07:30:39;;;;;;;60.70;31.75;;;;;;;3.91;80.70;100785.25;1765369;80;25799;-81
2020/12/22 07:33:07;;;;;;;52.23;29.57;;;;;;;3.91;80.85;100788.41;1734412;81;26448;-81
2020/12/22 07:35:35;;;;;;;56.53;29.52;;;;;;;3.91;80.93;100783.93;1751229;81;27515;-81
2020/12/22 07:38:06;;;;;;;56.37;30.80;;;;;;;3.92;80.84;100784.77;1719278;81;26059;-81
2020/12/22 07:40:42;;;;;;;54.60;28.47;;;;;;;3.94;80.99;100776.19;1748611;81;25691;-80
2020/12/22 07:43:13;;;;;;;53.25;29.87;;;;;;;3.97;80.97;100765.80;1682106;81;26560;-81
2020/12/22 07:45:50;;;;;;;57.73;29.82;;;;;;;3.99;80.83;100757.22;1696068;81;25850;-81
2020/12/22 07:48:18;;;;;;;48.65;28.40;;;;;;;3.97;80.71;100761.83;1718459;81;27335;-82
2020/12/22 07:50:53;;;;;;;49.95;27.82;;;;;;;3.97;80.74;100752.55;1743941;81;25924;-82
2020/12/22 07:53:23;;;;;;;51.53;27.42;;;;;;;3.97;80.74;100755.20;1764515;80;25620;-81
2020/12/22 07:55:51;;;;;;;54.08;29.00;;;;;;;3.97;80.54;100736.66;1752220;80;25449;-81
2020/12/22 07:58:20;;;;;;;55.20;28.55;;;;;;;3.92;80.44;100726.47;1728083;81;25942;-81
2020/12/22 08:00:47;;;;;;;50.45;27.50;;;;;;;3.94;80.67;100731.14;1758665;80;27597;-81
2020/12/22 08:03:18;;;;;;;54.15;28.23;;;;;;;3.93;80.52;100725.52;1684871;80;25987;-81
2020/12/22 08:06:02;;;;;;;47.33;27.93;;;;;;;3.98;80.53;100715.81;1796694;79;25708;-84
2020/12/22 08:08:30;;;;;;;49.18;26.45;;;;;;;3.93;80.46;100715.39;1731698;79;25817;-80
2020/12/22 08:10:58;;;;;;;47.23;26.45;;;;;;;3.95;80.56;100709.45;1701317;81;28927;-82
2020/12/22 08:13:32;;;;;;;49.60;27.75;;;;;;;3.91;80.40;100703.11;1723760;80;26400;-83
2020/12/22 08:16:00;;;;;;;48.05;27.13;;;;;;;3.89;80.42;100695.78;1737056;81;25823;-81
2020/12/22 08:18:36;;;;;;;45.58;24.43;;;;;;;3.90;80.66;100696.15;1741748;80;26112;-82
2020/12/22 08:21:04;;;;;;;48.73;28.02;;;;;;;3.92;80.37;100693.34;1720327;80;26398;-81
2020/12/22 08:23:32;;;;;;;49.48;27.02;;;;;;;3.91;80.58;100695.16;1739658;80;27619;-81
2020/12/22 08:26:01;;;;;;;53.52;28.35;;;;;;;3.95;80.64;100694.88;1735585;80;25863;-82
2020/12/22 08:28:30;;;;;;;52.93;26.85;;;;;;;3.99;81.07;100697.11;1767265;80;26263;-81
2020/12/22 08:31:15;;;;;;;49.15;25.43;;;;;;;4.03;80.57;100682.59;1727392;80;25425;-81
2020/12/22 08:33:46;;;;;;;51.68;28.75;;;;;;;4.05;80.35;100675.81;1717204;80;25932;-81
2020/12/22 08:36:14;;;;;;;;;;;;;;;4.03;80.19;100680.42;1758916;80;27305;-81
2020/12/22 08:38:42;;;;;;;53.60;29.20;;;;;;;3.99;80.11;100673.26;1773236;80;25776;-82
2020/12/22 08:41:25;;;;;;;51.48;27.15;;;;;;;3.96;79.97;100678.02;1750287;80;26810;-82
2020/12/22 08:43:53;;;;;;;49.48;26.35;;;;;;;3.93;80.04;100679.62;1685426;81;25941;-82
2020/12/22 08:46:23;;;;;;;45.28;25.60;;;;;;;3.93;80.18;100683.59;1710226;81;25970;-79
2020/12/22 08:48:53;;;;;;;49.40;25.15;;;;;;;3.93;80.28;100676.48;1705424;81;27545;-81
2020/12/22 08:51:27;;;;;;;36.93;22.62;;;;;;;3.93;80.39;100672.00;1709006;81;26133;-80
2020/12/22 08:53:56;;;;;;;48.28;25.77;;;;;;;3.95;80.40;100664.41;1692518;83;25919;-81
2020/12/22 08:56:24;;;;;;;49.45;25.50;;;;;;;3.94;80.49;100660.91;1666436;84;25857;-81
2020/12/22 08:58:58;;;;;;;45.35;25.48;;;;;;;3.91;80.50;100658.05;1662662;83;25935;-81
2020/12/22 09:01:32;;;;;;;47.35;25.20;;;;;;;3.90;80.60;100651.59;1689172;82;27562;-80
2020/12/22 09:04:00;;;;;;;46.00;24.32;;;;;;;3.90;80.70;100637.86;1704799;82;25876;-80
2020/12/22 09:06:45;;;;;;;48.17;26.15;;;;;;;3.86;80.70;100636.95;1684011;82;25473;-80
2020/12/22 09:09:16;;;;;;;56.23;28.80;;;;;;;3.82;80.78;100618.34;1666117;82;25862;-80
2020/12/22 09:11:46;;;;;;;48.52;24.02;;;;;;;3.78;80.94;100629.73;1676758;82;25882;-81
2020/12/22 09:14:16;;;;;;;49.63;25.32;;;;;;;3.78;81.03;100620.46;1696076;82;27525;-81
2020/12/22 09:16:56;;;;;;;45.70;25.05;;;;;;;3.76;81.04;100617.09;1714318;82;25826;-80
2020/12/22 09:19:47;;;;;;;43.90;24.67;;;;;;;3.75;81.27;100615.91;1676381;84;25720;-81
2020/12/22 09:22:21;;;;;;;49.77;25.52;;;;;;;3.76;81.36;100609.14;1702557;82;25421;-81
2020/12/22 09:25:07;;;;;;;46.08;24.63;;;;;;;3.80;81.48;100604.41;1842956;77;25743;-80
2020/12/22 09:27:43;;;;;;;52.80;27.00;;;;;;;3.75;81.54;100597.38;1778829;79;25830;-81
2020/12/22 09:30:16;;;;;;;48.65;25.92;;;;;;;3.72;81.57;100600.33;1753958;80;27581;-81
2020/12/22 09:32:47;;;;;;;47.70;26.70;;;;;;;3.71;81.85;100602.13;1685321;81;26282;-80
2020/12/22 09:35:14;;;;;;;48.35;25.02;;;;;;;3.71;81.92;100595.52;1711140;81;25819;-80
2020/12/22 09:37:41;;;;;;;50.45;26.07;;;;;;;3.74;82.05;100589.09;1733264;81;25800;-80
2020/12/22 09:40:11;;;;;;;43.48;24.15;;;;;;;3.74;82.20;100575.85;1693357;83;25947;-81
2020/12/22 09:42:38;;;;;;;49.13;25.32;;;;;;;3.74;82.20;100577.17;1681960;82;27610;-81
2020/12/22 09:45:05;;;;;;;46.15;25.48;;;;;;;3.74;82.31;100570.55;1692493;82;25824;-81
2020/12/22 09:47:33;;;;;;;50.00;25.50;;;;;;;3.76;82.45;100577.86;1731892;82;25900;-81
2020/12/22 09:50:00;;;;;;;46.35;25.00;;;;;;;3.75;82.53;100567.75;1659815;83;25852;-80
2020/12/22 09:52:27;;;;;;;46.28;24.57;;;;;;;3.77;82.63;100567.12;1692047;82;26141;-80
2020/12/22 09:54:55;;;;;;;40.50;21.52;;;;;;;3.78;82.58;100562.66;1681608;83;28291;-80
2020/12/22 09:57:22;;;;;;;50.48;25.85;;;;;;;3.75;82.58;100561.61;1729466;81;25380;-80
2020/12/22 09:59:50;;;;;;;118.60;78.55;;;;;;;3.74;82.78;100555.98;1684745;81;25771;-81
2020/12/22 10:02:17;;;;;;;101.55;63.78;;;;;;;3.73;82.91;100550.33;1688660;82;26500;-81
2020/12/22 10:04:45;;;;;;;80.42;57.10;;;;;;;3.74;82.92;100544.88;1674668;82;25807;-82
2020/12/22 10:07:12;;;;;;;131.78;90.32;;;;;;;3.76;83.04;100538.94;1716236;83;27527;-80
2020/12/22 10:09:39;;;;;;;149.55;98.62;;;;;;;3.78;83.12;100540.14;1662500;82;25418;-81
2020/12/22 10:12:07;;;;;;;157.57;100.05;;;;;;;3.78;83.19;100533.03;1678913;82;25825;-80
2020/12/22 10:14:34;;;;;;;136.82;91.25;;;;;;;3.76;83.21;100516.42;1683587;83;26186;-80
2020/12/22 10:17:02;;;;;;;141.82;91.75;;;;;;;3.80;83.37;100513.02;1729923;82;25856;-80
2020/12/22 10:19:30;;;;;;;153.97;78.87;;;;;;;3.81;83.35;100507.56;1666883;81;27542;-80
2020/12/22 10:21:57;;;;;;;96.25;49.20;;;;;;;3.83;83.45;100498.97;1688278;81;26210;-80
2020/12/22 10:24:24;;;;;;;147.98;71.00;;;;;;;3.84;83.71;100499.81;1689702;82;25814;-81
2020/12/22 10:26:52;;;;;;;144.40;84.70;;;;;;;3.85;83.58;100496.16;1748575;80;26326;-80
2020/12/22 10:29:19;;;;;;;95.80;49.45;;;;;;;3.83;83.62;100491.02;1697704;81;26467;-80
2020/12/22 10:31:47;;;;;;;70.75;37.58;;;;;;;3.84;83.96;100485.24;1699848;81;27560;-80
2020/12/22 10:34:14;;;;;;;92.12;40.10;;;;;;;3.83;83.86;100488.86;1750951;81;25573;-79
2020/12/22 10:36:45;;;;;;;84.10;40.35;;;;;;;3.82;83.97;100483.23;1751615;80;25850;-80
2020/12/22 10:39:12;;;;;;;;;;;;;;;3.82;84.06;100473.48;1728119;81;25891;-80
2020/12/22 10:41:39;;;;;;;84.25;40.38;;;;;;;3.83;84.17;100473.80;1693339;83;26583;-80
2020/12/22 10:44:07;;;;;;;83.10;43.15;;;;;;;3.84;84.35;100468.02;1728661;81;28293;-80
2020/12/22 10:46:34;;;;;;;57.17;33.67;;;;;;;3.85;84.29;100464.37;1721498;81;25818;-80
2020/12/22 10:49:02;;;;;;;59.48;32.08;;;;;;;3.88;84.37;100466.26;1693879;81;25859;-79
2020/12/22 10:51:31;;;;;;;43.65;26.17;;;;;;;3.88;84.63;100449.03;1677841;82;25887;-80
2020/12/22 10:54:00;;;;;;;39.05;23.22;;;;;;;3.89;84.55;100452.53;1700012;82;25916;-80
2020/12/22 10:56:27;;;;;;;45.65;24.67;;;;;;;3.89;84.53;100456.50;1709218;81;27541;-80
2020/12/22 10:58:55;;;;;;;46.48;25.08;;;;;;;3.90;84.78;100453.70;1676146;81;25438;-81
2020/12/22 11:01:22;;;;;;;41.75;24.05;;;;;;;3.93;84.76;100460.52;1720612;81;25932;-80
2020/12/22 11:03:50;;;;;;;40.78;22.73;;;;;;;3.94;84.77;100451.58;1687062;81;25970;-81
2020/12/22 11:06:45;;;;;;;43.25;23.87;;;;;;;3.96;84.90;100445.63;1688383;81;25411;-80
2020/12/22 11:09:04;;;;;;;38.80;22.93;;;;;;;3.98;84.89;100448.97;1683258;81;27545;-80
2020/12/22 11:11:32;;;;;;;44.38;22.07;;;;;;;3.98;84.81;100444.19;1701374;81;26087;-80
2020/12/22 11:13:59;;;;;;;36.65;21.23;;;;;;;3.99;84.76;100439.20;1740556;81;26001;-81
2020/12/22 11:16:27;;;;;;;43.35;24.07;;;;;;;3.99;84.78;100429.93;1689941;81;25855;-81
2020/12/22 11:18:55;;;;;;;42.55;25.68;;;;;;;4.00;84.83;100418.36;1679391;82;25891;-80
2020/12/22 11:21:24;;;;;;;41.55;23.12;;;;;;;4.00;85.00;100416.52;1719278;81;27541;-80
2020/12/22 11:23:51;;;;;;;41.40;21.87;;;;;;;3.99;84.86;100410.90;1700207;81;25918;-80
2020/12/22 11:26:21;;;;;;;41.65;23.45;;;;;;;4.00;85.05;100403.79;1700143;82;26526;-79
2020/12/22 11:28:50;;;;;;;45.30;25.92;;;;;;;3.99;84.95;100405.59;1710937;82;26051;-81